Time;durP1;ratioP1;P1;durP2;ratioP2;P2;SDS_P1;SDS_P2;PMS_P1;PMS_P2;Temp;Humidity;BMP_temperature;BMP_pressure;BME280_temperature;BME280_humidity;BME280_pressure;Samples;Min_cycle;Max_cycle;Signal;HPM_P1;HPM_P2
2023/10/04 00:00:47;;;;;;;18.52;7.65;;;;;;;14.16;55.90;100577.27;1747614;82;21633;-71
2023/10/04 00:03:16;;;;;;;15.72;7.40;;;;;;;14.16;55.92;100574.51;1747562;82;21448;-71
2023/10/04 00:05:45;;;;;;;17.80;7.62;;;;;;;14.17;55.92;100581.18;1747719;82;21059;-70
2023/10/04 00:08:13;;;;;;;21.45;7.53;;;;;;;14.15;55.91;100571.44;1747613;82;21254;-70
2023/10/04 00:10:42;;;;;;;15.93;7.22;;;;;;;14.13;55.92;100570.80;1747914;82;20991;-70
2023/10/04 00:13:13;;;;;;;22.55;7.97;;;;;;;14.11;56.00;100571.02;1747722;82;21229;-70
2023/10/04 00:15:42;;;;;;;17.85;7.37;;;;;;;14.10;55.98;100563.82;1747650;82;21533;-69
2023/10/04 00:18:11;;;;;;;19.57;7.25;;;;;;;14.10;56.00;100561.59;1747579;81;21568;-70
2023/10/04 00:20:40;;;;;;;17.12;7.37;;;;;;;14.08;56.00;100560.44;1747624;82;21027;-71
2023/10/04 00:23:09;;;;;;;18.50;7.92;;;;;;;14.06;56.05;100554.83;1747533;82;21090;-70
2023/10/04 00:25:38;;;;;;;21.62;7.85;;;;;;;14.06;56.06;100556.20;1747649;82;21043;-70
2023/10/04 00:28:07;;;;;;;18.70;7.70;;;;;;;14.05;56.06;100551.76;1747907;82;21252;-71
2023/10/04 00:30:36;;;;;;;18.75;8.10;;;;;;;14.03;56.07;100551.97;1747714;82;21055;-71
2023/10/04 00:33:06;;;;;;;18.85;8.08;;;;;;;13.99;56.17;100554.84;1749074;82;21295;-70
2023/10/04 00:35:40;;;;;;;19.50;8.48;;;;;;;13.99;56.23;100549.34;1753142;82;21046;-71
2023/10/04 00:38:05;;;;;;;19.10;8.08;;;;;;;13.98;56.26;100545.42;1752494;82;21055;-71
2023/10/04 00:40:34;;;;;;;20.20;8.08;;;;;;;13.95;56.21;100544.79;1753395;82;21050;-70
2023/10/04 00:43:13;;;;;;;18.80;7.55;;;;;;;13.93;56.28;100543.31;1753134;82;21050;-70
2023/10/04 00:45:34;;;;;;;15.55;7.55;;;;;;;13.92;56.27;100544.38;1751653;82;21027;-71
2023/10/04 00:48:06;;;;;;;16.67;7.75;;;;;;;13.91;56.35;100542.69;1753436;82;21034;-70
2023/10/04 00:50:36;;;;;;;22.50;8.73;;;;;;;13.90;56.40;100539.62;1753232;82;21059;-71
2023/10/04 00:53:08;;;;;;;15.55;7.47;;;;;;;13.92;56.39;100549.89;1753232;82;21059;-71
2023/10/04 00:55:42;;;;;;;16.42;7.45;;;;;;;13.92;56.34;100548.52;1753305;81;21547;-70
2023/10/04 00:58:10;;;;;;;21.17;8.38;;;;;;;13.91;56.35;100550.95;1753260;81;21035;-69
2023/10/04 01:00:40;;;;;;;18.07;7.92;;;;;;;13.88;56.29;100548.63;1753054;82;21061;-70
2023/10/04 01:03:10;;;;;;;19.82;7.65;;;;;;;13.84;56.40;100544.61;1753410;82;21094;-71
2023/10/04 01:05:44;;;;;;;18.23;7.33;;;;;;;13.82;56.46;100538.47;1753362;81;20996;-71
2023/10/04 01:08:10;;;;;;;19.82;7.37;;;;;;;13.81;56.42;100536.25;1753156;82;21467;-69
2023/10/04 01:10:39;;;;;;;19.52;7.60;;;;;;;13.80;56.44;100533.18;1753283;82;21019;-71
2023/10/04 01:13:09;;;;;;;19.42;7.15;;;;;;;13.82;56.41;100535.72;1753306;81;21070;-71
2023/10/04 01:15:39;;;;;;;17.60;7.30;;;;;;;13.81;56.41;100530.74;1753251;82;21047;-70
2023/10/04 01:18:12;;;;;;;21.27;8.13;;;;;;;13.81;56.39;100528.52;1753305;82;21495;-70
2023/10/04 01:20:42;;;;;;;16.12;7.08;;;;;;;13.80;56.42;100526.30;1753099;82;21102;-70
2023/10/04 01:23:11;;;;;;;18.50;6.92;;;;;;;13.79;56.42;100526.52;1753184;82;21043;-71
2023/10/04 01:25:41;;;;;;;21.15;7.62;;;;;;;13.80;56.42;100523.54;1753087;82;21462;-69
2023/10/04 01:28:13;;;;;;;16.60;6.90;;;;;;;13.81;56.39;100526.61;1753140;82;21066;-70
2023/10/04 01:30:46;;;;;;;15.45;7.12;;;;;;;13.81;56.41;100529.89;1753194;82;21071;-71
2023/10/04 01:33:18;;;;;;;18.20;6.70;;;;;;;13.80;56.45;100524.91;1752269;82;21102;-70
2023/10/04 01:35:52;;;;;;;17.35;6.87;;;;;;;13.80;56.44;100520.78;1747671;82;21031;-71
2023/10/04 01:38:27;;;;;;;20.77;7.42;;;;;;;13.83;56.38;100525.02;1747796;81;21043;-71
2023/10/04 01:40:56;;;;;;;15.80;7.25;;;;;;;13.83;56.33;100531.38;1747527;82;21079;-71
2023/10/04 01:43:27;;;;;;;14.55;6.95;;;;;;;13.84;56.28;100523.95;1747744;82;21090;-71
2023/10/04 01:45:58;;;;;;;16.60;6.90;;;;;;;13.86;56.25;100524.59;1747699;82;21075;-70
2023/10/04 01:48:36;;;;;;;14.83;6.60;;;;;;;13.85;56.18;100515.47;1747449;82;21023;-75
2023/10/04 01:51:06;;;;;;;15.90;6.77;;;;;;;13.85;56.13;100514.63;1747848;82;21027;-69
2023/10/04 01:53:36;;;;;;;18.67;7.03;;;;;;;13.83;56.11;100512.63;1747771;82;20983;-71
2023/10/04 01:56:06;;;;;;;20.37;7.60;;;;;;;13.84;56.08;100514.31;1747790;82;21055;-70
2023/10/04 01:58:37;;;;;;;18.35;7.15;;;;;;;13.84;55.95;100506.05;1747563;82;21536;-71
2023/10/04 02:01:06;;;;;;;19.17;6.55;;;;;;;13.85;55.90;100502.23;1747639;82;21007;-69
2023/10/04 02:03:34;;;;;;;18.02;7.42;;;;;;;13.85;55.87;100503.61;1747829;81;21000;-70
2023/10/04 02:06:05;;;;;;;18.50;7.25;;;;;;;13.87;55.81;100498.73;1747638;82;21471;-71
2023/10/04 02:08:34;;;;;;;20.15;7.40;;;;;;;13.86;55.73;100493.75;1747601;82;21063;-72
2023/10/04 02:11:05;;;;;;;18.65;7.50;;;;;;;13.85;55.72;100487.93;1747602;82;21094;-70
2023/10/04 02:13:35;;;;;;;19.23;7.37;;;;;;;13.85;55.72;100485.17;1747932;82;21035;-71
2023/10/04 02:16:08;;;;;;;19.82;7.45;;;;;;;13.87;55.67;100478.92;1747844;82;21032;-70
2023/10/04 02:18:34;;;;;;;24.00;8.10;;;;;;;13.86;55.63;100468.13;1747573;81;21029;-71
2023/10/04 02:21:03;;;;;;;18.87;7.10;;;;;;;13.84;55.65;100461.45;1747935;82;21019;-70
2023/10/04 02:23:32;;;;;;;19.05;6.95;;;;;;;13.85;55.58;100463.67;1748061;82;21447;-71
2023/10/04 02:26:00;;;;;;;16.82;7.10;;;;;;;13.84;55.60;100470.25;1747756;82;21035;-70
2023/10/04 02:28:33;;;;;;;17.95;7.70;;;;;;;13.83;55.68;100463.89;1747844;82;21432;-75
2023/10/04 02:31:02;;;;;;;18.67;7.97;;;;;;;13.83;55.72;100461.67;1747776;81;21055;-70
2023/10/04 02:33:34;;;;;;;16.70;6.92;;;;;;;13.83;55.77;100456.16;1748244;82;21596;-70
2023/10/04 02:36:07;;;;;;;15.65;7.17;;;;;;;13.81;55.85;100453.63;1753182;82;21027;-69
2023/10/04 02:38:34;;;;;;;21.70;7.87;;;;;;;13.81;55.88;100455.00;1753135;81;21063;-71
2023/10/04 02:41:06;;;;;;;18.37;7.12;;;;;;;13.79;55.94;100450.24;1753493;82;20995;-71
2023/10/04 02:43:40;;;;;;;16.90;6.92;;;;;;;13.77;56.05;100446.02;1753500;82;21170;-71
2023/10/04 02:46:10;;;;;;;17.02;7.17;;;;;;;13.76;56.13;100442.95;1726918;82;21497;-71
2023/10/04 02:48:41;;;;;;;14.68;6.67;;;;;;;13.75;56.21;100446.77;1753477;82;21031;-71
2023/10/04 02:51:09;;;;;;;21.30;7.90;;;;;;;13.71;56.31;100442.75;1725206;82;21052;-71
2023/10/04 02:53:41;;;;;;;15.32;7.10;;;;;;;13.68;56.38;100441.28;1753317;82;21019;-71
2023/10/04 02:56:09;;;;;;;17.02;7.55;;;;;;;13.68;56.46;100444.56;1753239;82;21482;-71
2023/10/04 02:58:40;;;;;;;20.70;7.83;;;;;;;13.67;56.50;100440.13;1753233;82;21063;-70
2023/10/04 03:01:12;;;;;;;16.82;7.22;;;;;;;13.64;56.55;100441.37;1753121;82;21035;-70
2023/10/04 03:03:42;;;;;;;17.48;7.17;;;;;;;13.62;56.64;100442.11;1701769;82;21776;-71
2023/10/04 03:06:11;;;;;;;18.25;6.75;;;;;;;13.59;56.71;100443.39;1753297;82;21070;-70
2023/10/04 03:08:40;;;;;;;18.42;7.28;;;;;;;13.58;56.76;100433.97;1753172;81;21050;-70
2023/10/04 03:11:12;;;;;;;17.70;7.25;;;;;;;13.54;56.89;100432.19;1753207;81;21027;-71
2023/10/04 03:13:40;;;;;;;17.25;7.60;;;;;;;13.54;56.92;100430.81;1753289;82;21039;-72
2023/10/04 03:16:09;;;;;;;19.67;7.85;;;;;;;13.53;56.91;100431.88;1753387;82;21999;-71
2023/10/04 03:18:40;;;;;;;18.67;7.92;;;;;;;13.51;56.95;100424.36;1753360;82;21043;-71
2023/10/04 03:21:13;;;;;;;17.32;7.05;;;;;;;13.50;56.99;100429.55;1753179;81;21003;-70
2023/10/04 03:23:42;;;;;;;20.02;7.65;;;;;;;13.47;57.04;100418.97;1753116;82;21054;-73
2023/10/04 03:26:14;;;;;;;19.45;7.58;;;;;;;13.46;57.11;100426.91;1752873;82;21517;-71
2023/10/04 03:28:44;;;;;;;21.95;8.10;;;;;;;13.48;57.12;100419.29;1753318;82;21027;-70
2023/10/04 03:31:14;;;;;;;17.20;6.92;;;;;;;13.47;57.12;100413.47;1753272;82;21011;-71
2023/10/04 03:33:46;;;;;;;18.23;7.65;;;;;;;13.45;57.14;100403.73;1752381;81;21086;-70
2023/10/04 03:36:18;;;;;;;17.37;6.92;;;;;;;13.45;57.19;100405.11;1747658;82;21095;-71
2023/10/04 03:38:49;;;;;;;17.62;7.05;;;;;;;13.46;57.18;100401.30;1747502;81;21557;-72
2023/10/04 03:41:19;;;;;;;16.27;7.03;;;;;;;13.44;57.18;100397.39;1747859;82;21047;-72
2023/10/04 03:43:49;;;;;;;17.30;7.12;;;;;;;13.44;57.21;100391.88;1747727;82;21075;-71
2023/10/04 03:46:18;;;;;;;16.12;7.55;;;;;;;13.41;57.27;100393.69;1747558;82;21075;-70
2023/10/04 03:48:49;;;;;;;18.85;7.40;;;;;;;13.40;57.32;100393.37;1747331;82;21079;-70
2023/10/04 03:51:21;;;;;;;16.85;7.20;;;;;;;13.37;57.34;100392.44;1747503;82;21035;-71
2023/10/04 03:53:53;;;;;;;17.55;7.37;;;;;;;13.36;57.41;100394.03;1747836;82;21071;-72
2023/10/04 03:56:25;;;;;;;17.82;7.50;;;;;;;13.34;57.48;100394.24;1747796;82;21011;-70
2023/10/04 03:58:54;;;;;;;22.27;7.80;;;;;;;13.33;57.54;100398.05;1747598;81;21039;-71
2023/10/04 04:01:26;;;;;;;19.65;7.67;;;;;;;13.32;57.58;100405.47;1747558;82;21471;-69
2023/10/04 04:03:53;;;;;;;23.42;8.00;;;;;;;13.29;57.65;100400.92;1747586;82;21570;-71
2023/10/04 04:06:23;;;;;;;20.23;7.90;;;;;;;13.25;57.74;100406.02;1747762;82;21057;-70
2023/10/04 04:08:55;;;;;;;21.30;7.58;;;;;;;13.25;57.82;100410.67;1747831;82;20999;-71
2023/10/04 04:11:24;;;;;;;18.80;7.53;;;;;;;13.23;57.85;100408.66;1747609;82;21074;-70
2023/10/04 04:13:52;;;;;;;18.95;8.03;;;;;;;13.19;57.96;100406.03;1747709;82;21046;-70
2023/10/04 04:16:21;;;;;;;17.80;7.37;;;;;;;13.17;58.05;100398.52;1747541;82;21023;-72
2023/10/04 04:18:54;;;;;;;17.80;6.97;;;;;;;13.16;58.12;100405.05;1747575;82;21024;-70
2023/10/04 04:21:21;;;;;;;18.67;7.22;;;;;;;13.18;58.16;100407.09;1747736;82;21055;-72
2023/10/04 04:23:50;;;;;;;15.88;6.83;;;;;;;13.20;58.14;100402.22;1747781;82;21114;-72
2023/10/04 04:26:23;;;;;;;18.73;7.15;;;;;;;13.19;58.15;100406.03;1747653;82;21435;-70
2023/10/04 04:28:51;;;;;;;21.60;8.15;;;;;;;13.18;58.15;100400.20;1747753;82;21514;-71
2023/10/04 04:31:21;;;;;;;18.35;7.28;;;;;;;13.19;58.21;100393.64;1747883;81;21046;-72
2023/10/04 04:33:50;;;;;;;21.77;7.50;;;;;;;13.20;58.21;100398.09;1747626;82;21461;-71
2023/10/04 04:36:34;;;;;;;20.97;7.78;;;;;;;13.21;58.19;100400.63;1752903;82;21069;-72
2023/10/04 04:38:53;;;;;;;17.82;7.25;;;;;;;13.22;58.18;100400.09;1749685;82;21444;-71
2023/10/04 04:41:25;;;;;;;19.52;7.42;;;;;;;13.20;58.24;100399.46;1753266;82;21054;-69
2023/10/04 04:43:55;;;;;;;14.40;7.25;;;;;;;13.18;58.24;100392.80;1753386;82;21038;-71
2023/10/04 04:46:24;;;;;;;20.02;7.50;;;;;;;13.17;58.31;100391.11;1753091;82;21019;-69
2023/10/04 04:48:57;;;;;;;18.10;7.72;;;;;;;13.18;58.40;100391.95;1753380;82;21529;-70
2023/10/04 04:51:27;;;;;;;17.02;7.55;;;;;;;13.18;58.41;100403.80;1753444;82;21070;-71
2023/10/04 04:53:57;;;;;;;23.40;8.33;;;;;;;13.17;58.42;100399.89;1753402;82;21073;-70
2023/10/04 04:56:27;;;;;;;19.45;8.10;;;;;;;13.19;58.50;100400.52;1753294;82;21007;-69
2023/10/04 04:59:07;;;;;;;19.92;7.62;;;;;;;13.21;58.49;100398.41;1753344;82;21484;-71
2023/10/04 05:01:34;;;;;;;17.52;7.30;;;;;;;13.23;58.46;100392.16;1752210;82;20999;-70
2023/10/04 05:04:05;;;;;;;18.52;7.42;;;;;;;13.26;58.44;100379.34;1753249;82;21059;-69
2023/10/04 05:06:34;;;;;;;21.20;8.05;;;;;;;13.25;58.34;100381.78;1753072;81;21035;-70
2023/10/04 05:09:04;;;;;;;17.30;7.75;;;;;;;13.24;58.42;100387.81;1753207;82;21444;-70
2023/10/04 05:11:36;;;;;;;19.57;7.45;;;;;;;13.24;58.46;100374.58;1753129;82;21098;-69
2023/10/04 05:14:05;;;;;;;23.10;7.90;;;;;;;13.26;58.48;100372.46;1753165;82;21051;-71
2023/10/04 05:16:36;;;;;;;18.73;7.65;;;;;;;13.27;58.48;100360.39;1753177;82;21061;-70
2023/10/04 05:19:09;;;;;;;22.20;7.72;;;;;;;13.27;58.45;100362.61;1753278;82;21074;-70
2023/10/04 05:21:36;;;;;;;16.52;7.10;;;;;;;13.32;58.44;100369.69;1753146;82;21295;-70
2023/10/04 05:24:06;;;;;;;19.73;7.20;;;;;;;13.34;58.39;100361.22;1753354;82;21103;-70
2023/10/04 05:26:37;;;;;;;20.50;8.50;;;;;;;13.36;58.31;100368.73;1752988;82;21466;-70
2023/10/04 05:29:07;;;;;;;21.30;7.97;;;;;;;13.38;58.32;100357.50;1753207;81;21070;-71
2023/10/04 05:31:37;;;;;;;20.60;7.92;;;;;;;13.40;58.33;100356.22;1753183;82;21023;-70
2023/10/04 05:34:06;;;;;;;17.92;6.97;;;;;;;13.45;58.33;100363.30;1753000;82;21069;-70
2023/10/04 05:36:39;;;;;;;21.05;7.55;;;;;;;13.50;58.33;100368.99;1761185;81;21081;-71
2023/10/04 05:39:11;;;;;;;25.35;7.65;;;;;;;13.57;58.29;100371.72;1761402;81;21325;-69
2023/10/04 05:41:38;;;;;;;22.45;7.90;;;;;;;13.65;58.25;100359.08;1761408;81;21074;-70
2023/10/04 05:44:08;;;;;;;16.07;7.15;;;;;;;13.75;58.13;100361.39;1761593;81;21027;-70
2023/10/04 05:46:44;;;;;;;19.40;7.75;;;;;;;13.83;57.97;100363.36;1761613;81;21124;-71
2023/10/04 05:49:09;;;;;;;15.90;7.00;;;;;;;13.92;57.84;100357.06;1760833;81;21098;-71
2023/10/04 05:51:38;;;;;;;18.40;7.10;;;;;;;14.02;57.83;100364.31;1761390;81;21007;-70
2023/10/04 05:54:08;;;;;;;16.30;7.45;;;;;;;14.13;57.65;100360.01;1761402;81;21518;-70
2023/10/04 05:56:39;;;;;;;18.23;7.47;;;;;;;14.25;57.40;100365.97;1761381;81;21046;-70
2023/10/04 05:59:10;;;;;;;18.75;7.45;;;;;;;14.36;57.20;100368.56;1761398;81;21561;-70
2023/10/04 06:01:41;;;;;;;19.20;7.58;;;;;;;14.46;56.91;100357.08;1761491;81;21105;-72
2023/10/04 06:04:11;;;;;;;25.32;7.20;;;;;;;14.51;56.73;100354.49;1761602;81;21007;-71
2023/10/04 06:06:44;;;;;;;20.08;7.75;;;;;;;14.57;56.69;100359.95;1761384;81;21022;-71
2023/10/04 06:09:26;;;;;;;19.05;7.28;;;;;;;14.64;56.50;100359.05;1761368;81;21002;-70
2023/10/04 06:11:44;;;;;;;15.98;7.33;;;;;;;14.68;56.43;100358.91;1759569;81;21489;-72
2023/10/04 06:14:13;;;;;;;19.73;7.17;;;;;;;14.71;56.40;100358.45;1761470;81;21050;-70
2023/10/04 06:16:42;;;;;;;20.82;7.50;;;;;;;14.77;56.40;100359.78;1761479;81;21062;-72
2023/10/04 06:19:13;;;;;;;20.50;8.40;;;;;;;14.81;56.37;100358.25;1761342;81;21078;-69
2023/10/04 06:21:48;;;;;;;18.07;7.03;;;;;;;14.87;56.26;100361.48;1759078;81;21027;-70
2023/10/04 06:24:15;;;;;;;18.23;7.25;;;;;;;14.94;56.23;100360.58;1761400;81;21030;-69
2023/10/04 06:26:43;;;;;;;18.60;7.35;;;;;;;15.01;56.05;100357.24;1761380;81;21054;-70
2023/10/04 06:29:12;;;;;;;15.63;7.05;;;;;;;15.05;55.96;100359.32;1761423;81;21010;-70
2023/10/04 06:31:41;;;;;;;19.05;7.60;;;;;;;15.09;55.97;100361.94;1761359;81;21018;-71
2023/10/04 06:34:11;;;;;;;25.72;10.50;;;;;;;15.14;55.97;100368.14;1761593;81;21443;-70
2023/10/04 06:36:40;;;;;;;22.05;9.78;;;;;;;15.20;55.96;100366.70;1753724;81;21070;-71
2023/10/04 06:39:12;;;;;;;32.03;12.13;;;;;;;15.26;55.91;100363.55;1753019;82;21070;-71
2023/10/04 06:41:40;;;;;;;24.32;9.53;;;;;;;15.34;55.87;100359.11;1753272;81;21015;-69
2023/10/04 06:44:10;;;;;;;18.20;8.38;;;;;;;15.41;55.75;100366.77;1753216;82;21479;-70
2023/10/04 06:46:39;;;;;;;23.10;8.70;;;;;;;15.46;55.72;100364.16;1753452;82;21063;-71
2023/10/04 06:49:08;;;;;;;22.30;8.45;;;;;;;15.55;55.62;100364.70;1753347;82;21466;-69
2023/10/04 06:51:37;;;;;;;24.90;10.20;;;;;;;15.62;55.37;100368.83;1753445;82;21447;-73
2023/10/04 06:54:06;;;;;;;21.97;8.58;;;;;;;15.67;55.30;100363.45;1753155;82;21079;-72
2023/10/04 06:56:35;;;;;;;20.68;8.18;;;;;;;15.72;55.23;100355.31;1753275;82;21058;-70
2023/10/04 06:59:04;;;;;;;22.05;8.50;;;;;;;15.78;55.19;100348.85;1753393;82;21043;-70
2023/10/04 07:01:35;;;;;;;19.32;8.25;;;;;;;15.85;55.17;100353.75;1753327;82;21027;-73
2023/10/04 07:04:05;;;;;;;20.77;8.00;;;;;;;15.92;55.12;100348.13;1753444;82;21031;-72
2023/10/04 07:06:34;;;;;;;17.42;7.83;;;;;;;16.00;54.99;100350.02;1753437;82;21082;-71
2023/10/04 07:09:04;;;;;;;19.85;8.10;;;;;;;16.06;54.87;100349.63;1753178;82;21042;-71
2023/10/04 07:11:34;;;;;;;26.00;8.00;;;;;;;16.08;54.81;100349.69;1753275;82;21011;-72
2023/10/04 07:14:04;;;;;;;22.95;9.33;;;;;;;16.13;54.92;100358.13;1753274;82;21419;-71
2023/10/04 07:16:33;;;;;;;25.40;9.08;;;;;;;16.18;54.92;100352.73;1753407;82;21031;-71
2023/10/04 07:19:03;;;;;;;17.90;8.13;;;;;;;16.27;54.78;100355.19;1753160;82;21027;-72
2023/10/04 07:21:34;;;;;;;19.32;7.95;;;;;;;16.32;54.68;100350.64;1753168;81;21070;-72
2023/10/04 07:24:03;;;;;;;18.62;8.05;;;;;;;16.36;54.54;100354.62;1753335;82;21012;-71
2023/10/04 07:26:35;;;;;;;27.27;8.60;;;;;;;16.39;54.41;100361.05;1753170;81;21471;-73
2023/10/04 07:29:03;;;;;;;20.85;8.85;;;;;;;16.41;54.35;100366.34;1753393;82;21027;-73
2023/10/04 07:31:36;;;;;;;22.42;8.43;;;;;;;16.42;54.41;100366.65;1753319;82;21035;-72
2023/10/04 07:34:04;;;;;;;17.15;7.72;;;;;;;16.46;54.51;100364.56;1753277;82;21046;-72
2023/10/04 07:36:34;;;;;;;20.48;8.38;;;;;;;16.53;54.60;100369.98;1753164;82;21462;-73
2023/10/04 07:39:04;;;;;;;25.00;8.33;;;;;;;16.64;54.50;100373.31;1753130;82;21039;-71
2023/10/04 07:41:33;;;;;;;19.15;7.92;;;;;;;16.72;54.19;100374.38;1753149;82;21673;-72
2023/10/04 07:44:02;;;;;;;20.20;7.92;;;;;;;16.78;54.26;100365.12;1753259;81;21140;-72
2023/10/04 07:46:32;;;;;;;20.15;7.87;;;;;;;16.89;54.17;100376.44;1753327;82;21039;-72
2023/10/04 07:49:01;;;;;;;18.98;8.08;;;;;;;17.08;53.99;100371.11;1753041;80;21040;-73
2023/10/04 07:51:31;;;;;;;22.80;8.20;;;;;;;17.29;53.66;100385.73;1762553;80;21479;-73
2023/10/04 07:54:00;;;;;;;22.87;8.55;;;;;;;17.40;53.26;100383.48;1758744;80;21039;-72
2023/10/04 07:56:28;;;;;;;21.23;7.95;;;;;;;17.44;53.20;100389.37;1783869;80;21046;-73
2023/10/04 07:58:57;;;;;;;20.30;7.85;;;;;;;17.47;53.21;100392.20;1784062;80;21090;-73
2023/10/04 08:01:27;;;;;;;25.85;9.05;;;;;;;17.47;53.21;100390.82;1773914;80;21036;-67
2023/10/04 08:03:56;;;;;;;16.45;7.20;;;;;;;17.47;53.43;100401.36;1753109;82;21028;-65
2023/10/04 08:06:26;;;;;;;24.05;8.40;;;;;;;17.53;53.78;100400.39;1752910;82;21465;-66
2023/10/04 08:08:57;;;;;;;20.90;8.33;;;;;;;17.67;53.60;100389.40;1753093;81;21071;-65
2023/10/04 08:11:27;;;;;;;22.67;8.65;;;;;;;17.79;53.19;100399.06;1752876;82;21423;-66
2023/10/04 08:13:57;;;;;;;17.77;7.05;;;;;;;17.83;53.21;100400.26;1753082;82;21059;-66
2023/10/04 08:16:27;;;;;;;18.77;7.47;;;;;;;17.88;53.18;100405.91;1753113;81;21431;-65
2023/10/04 08:18:56;;;;;;;18.60;6.97;;;;;;;17.91;53.16;100404.58;1752914;81;21039;-66
2023/10/04 08:21:25;;;;;;;18.27;7.28;;;;;;;17.89;53.25;100412.30;1753145;82;21435;-68
2023/10/04 08:23:54;;;;;;;19.45;7.22;;;;;;;17.86;53.53;100411.41;1759287;80;20984;-64
2023/10/04 08:26:23;;;;;;;20.02;6.83;;;;;;;17.87;53.63;100416.70;1783917;80;21027;-65
2023/10/04 08:28:53;;;;;;;12.47;6.40;;;;;;;17.93;53.75;100417.65;1783827;80;21545;-66
2023/10/04 08:31:24;;;;;;;16.48;7.00;;;;;;;18.04;53.86;100427.31;1783992;80;21007;-66
2023/10/04 08:33:53;;;;;;;14.98;6.53;;;;;;;18.21;53.61;100421.86;1784038;80;21023;-66
2023/10/04 08:36:23;;;;;;;20.60;6.90;;;;;;;18.32;53.45;100426.52;1783818;80;21110;-66
2023/10/04 08:38:52;;;;;;;17.55;6.50;;;;;;;18.40;53.31;100428.05;1783681;80;21513;-66
2023/10/04 08:41:22;;;;;;;21.05;8.10;;;;;;;18.46;53.28;100435.92;1784078;80;21055;-65
2023/10/04 08:43:51;;;;;;;16.40;7.20;;;;;;;18.48;53.27;100423.48;1783862;80;21027;-65
2023/10/04 08:46:21;;;;;;;18.73;7.72;;;;;;;18.56;53.24;100431.94;1783855;80;21439;-65
2023/10/04 08:48:53;;;;;;;18.98;7.03;;;;;;;18.62;53.26;100437.92;1783949;80;21067;-64
2023/10/04 08:51:38;;;;;;;22.05;7.17;;;;;;;18.63;53.32;100438.21;1783758;80;21011;-65
2023/10/04 08:54:18;;;;;;;15.32;7.03;;;;;;;18.61;53.49;100442.62;1783748;80;21012;-64
2023/10/04 08:56:54;;;;;;;14.60;6.87;;;;;;;18.56;53.85;100434.72;1784145;80;21070;-66
2023/10/04 08:59:24;;;;;;;12.88;6.42;;;;;;;18.51;54.30;100441.56;1760886;80;21032;-65
2023/10/04 09:01:54;;;;;;;18.25;7.40;;;;;;;18.48;54.75;100436.52;1752918;82;21537;-68
2023/10/04 09:04:24;;;;;;;16.23;6.87;;;;;;;18.46;55.05;100430.37;1753115;82;21023;-66
2023/10/04 09:06:53;;;;;;;13.65;6.25;;;;;;;18.45;55.32;100424.52;1753005;82;21521;-68
2023/10/04 09:09:22;;;;;;;13.45;5.62;;;;;;;18.44;55.54;100425.07;1753152;82;21490;-65
2023/10/04 09:11:52;;;;;;;13.53;5.90;;;;;;;18.45;55.86;100430.07;1753207;81;21451;-68
2023/10/04 09:14:21;;;;;;;15.35;6.05;;;;;;;18.46;56.23;100428.98;1752808;82;21031;-67
2023/10/04 09:17:07;;;;;;;12.82;5.83;;;;;;;18.45;56.61;100432.30;1752926;81;21820;-66
2023/10/04 09:19:37;;;;;;;16.25;5.62;;;;;;;18.45;57.06;100436.46;1752940;81;21113;-66
2023/10/04 09:22:07;;;;;;;11.55;5.80;;;;;;;18.43;57.17;100437.25;1727306;79;21031;-69
2023/10/04 09:24:38;;;;;;;13.88;5.47;;;;;;;18.42;57.37;100438.89;1769021;79;21043;-68
2023/10/04 09:27:07;;;;;;;10.45;5.47;;;;;;;18.42;57.65;100450.83;1781755;80;21085;-67
2023/10/04 09:29:36;;;;;;;15.03;5.97;;;;;;;18.44;57.88;100445.88;1783932;80;21138;-67
2023/10/04 09:32:06;;;;;;;11.28;5.35;;;;;;;18.49;57.81;100453.45;1784020;80;21075;-67
2023/10/04 09:34:35;;;;;;;10.85;5.22;;;;;;;18.54;57.75;100450.23;1783816;80;21019;-65
2023/10/04 09:37:19;;;;;;;14.10;5.75;;;;;;;18.60;57.76;100445.62;1783909;79;21043;-65
2023/10/04 09:39:49;;;;;;;12.30;5.65;;;;;;;18.64;57.84;100455.16;1784108;80;21086;-65
2023/10/04 09:42:19;;;;;;;14.80;5.60;;;;;;;18.66;57.83;100460.76;1783914;80;21122;-65
2023/10/04 09:44:49;;;;;;;12.40;5.75;;;;;;;18.64;57.83;100454.61;1783845;80;20984;-67
2023/10/04 09:47:18;;;;;;;12.55;5.87;;;;;;;18.62;57.99;100458.19;1783847;80;21497;-66
2023/10/04 09:49:49;;;;;;;11.08;5.33;;;;;;;18.61;58.07;100456.50;1783849;80;21783;-66
2023/10/04 09:52:18;;;;;;;13.58;5.12;;;;;;;18.60;58.22;100478.92;1783761;80;21599;-68
2023/10/04 09:54:48;;;;;;;12.95;5.62;;;;;;;18.60;58.38;100467.81;1783907;80;21054;-69
2023/10/04 09:57:18;;;;;;;13.08;5.40;;;;;;;18.61;58.54;100460.66;1783840;80;21050;-68
2023/10/04 09:59:47;;;;;;;11.73;5.50;;;;;;;18.63;58.58;100470.13;1755381;80;21128;-67
2023/10/04 10:02:17;;;;;;;15.43;5.97;;;;;;;18.65;58.58;100482.66;1701847;82;21013;-66
2023/10/04 10:04:45;;;;;;;10.25;5.40;;;;;;;18.68;58.54;100482.72;1753033;81;21041;-65
2023/10/04 10:07:22;;;;;;;11.35;5.30;;;;;;;18.68;58.45;100470.23;1752925;82;21445;-67
2023/10/04 10:10:11;;;;;;;13.45;5.50;;;;;;;18.65;58.48;100480.44;1753160;82;21550;-66
2023/10/04 10:12:43;;;;;;;10.70;5.10;;;;;;;18.63;58.56;100487.63;1727010;82;21552;-68
2023/10/04 10:15:13;;;;;;;13.60;5.22;;;;;;;18.64;58.63;100489.31;1753010;82;21504;-67
2023/10/04 10:17:43;;;;;;;11.57;4.95;;;;;;;18.63;58.68;100483.46;1753260;82;21065;-67
2023/10/04 10:20:15;;;;;;;9.60;5.15;;;;;;;18.65;58.73;100496.55;1752927;81;21077;-69
2023/10/04 10:23:05;;;;;;;11.12;5.30;;;;;;;18.68;58.59;100492.43;1753098;82;21061;-67
2023/10/04 10:25:35;;;;;;;14.40;5.78;;;;;;;18.71;58.38;100495.25;1752974;82;21029;-66
2023/10/04 10:28:04;;;;;;;9.90;4.80;;;;;;;18.74;58.49;100489.20;1753141;81;21013;-64
2023/10/04 10:30:34;;;;;;;10.32;5.00;;;;;;;18.80;58.82;100493.76;1753044;81;21052;-67
2023/10/04 10:33:06;;;;;;;9.75;5.20;;;;;;;18.84;58.95;100486.61;1753274;81;21080;-67
2023/10/04 10:35:58;;;;;;;12.28;5.22;;;;;;;18.91;58.46;100498.44;1726232;82;21065;-65
2023/10/04 10:38:44;;;;;;;8.30;4.45;;;;;;;18.95;58.05;100496.84;1761220;81;21112;-67
2023/10/04 10:41:35;;;;;;;9.68;4.70;;;;;;;18.97;57.81;100494.66;1761341;81;21080;-67
2023/10/04 10:44:25;;;;;;;8.88;4.58;;;;;;;18.98;57.66;100499.95;1761514;81;21009;-67
2023/10/04 10:46:57;;;;;;;12.68;4.95;;;;;;;18.94;57.60;100510.42;1730260;83;21058;-68
2023/10/04 10:49:55;;;;;;;12.68;5.00;;;;;;;18.91;57.84;100500.66;1760080;80;21232;-69
2023/10/04 10:52:34;;;;;;;12.13;4.97;;;;;;;18.92;57.94;100516.23;1761173;80;21116;-68
2023/10/04 10:55:06;;;;;;;15.65;5.22;;;;;;;18.95;58.08;100514.89;1761047;81;21024;-66
2023/10/04 10:57:42;;;;;;;10.72;5.22;;;;;;;18.99;58.05;100516.08;1761724;80;21096;-67
2023/10/04 11:00:21;;;;;;;10.82;5.00;;;;;;;19.02;58.04;100524.45;1788565;80;21463;-70
2023/10/04 11:02:54;;;;;;;12.05;4.47;;;;;;;19.02;57.89;100521.13;1757716;81;21483;-67
2023/10/04 11:05:22;;;;;;;9.45;5.10;;;;;;;19.02;57.92;100536.41;1757757;81;21055;-67
2023/10/04 11:07:52;;;;;;;10.58;4.55;;;;;;;18.98;57.90;100536.61;1757855;81;21544;-67
2023/10/04 11:10:27;;;;;;;12.63;5.78;;;;;;;18.96;58.11;100531.84;1757929;81;21069;-68
2023/10/04 11:12:55;;;;;;;13.68;5.80;;;;;;;18.96;58.29;100533.23;1758062;81;21408;-65
2023/10/04 11:15:26;;;;;;;11.38;5.05;;;;;;;18.98;58.38;100535.22;1757948;81;21512;-66
2023/10/04 11:18:00;;;;;;;8.73;4.25;;;;;;;19.02;58.50;100541.11;1757950;81;21022;-66
2023/10/04 11:20:36;;;;;;;19.00;5.33;;;;;;;19.04;58.61;100538.37;1757791;81;20995;-68
2023/10/04 11:23:03;;;;;;;18.48;6.15;;;;;;;19.06;58.61;100547.30;1757805;81;21424;-67
2023/10/04 11:25:33;;;;;;;11.50;4.83;;;;;;;19.07;58.69;100547.60;1757615;81;21443;-63
2023/10/04 11:28:02;;;;;;;11.53;3.72;;;;;;;19.12;58.82;100548.24;1757848;81;21145;-62
2023/10/04 11:30:33;;;;;;;10.93;4.40;;;;;;;19.12;59.03;100553.25;1757598;81;21086;-64
2023/10/04 11:33:02;;;;;;;8.93;4.30;;;;;;;19.13;59.06;100552.16;1757829;81;21165;-62